Time;durP1;ratioP1;P1;durP2;ratioP2;P2;SDS_P1;SDS_P2;PMS_P1;PMS_P2;Temp;Humidity;BMP_temperature;BMP_pressure;BME280_temperature;BME280_humidity;BME280_pressure;Samples;Min_cycle;Max_cycle;Signal;HPM_P1;HPM_P2
2023/09/12 00:01:08;;;;;;;8.80;3.13;;;26.60;99.90;;;;;;5059973;28;20028;-53
2023/09/12 00:03:34;;;;;;;11.70;3.90;;;26.60;99.90;;;;;;5073037;28;20024;-54
2023/09/12 00:06:02;;;;;;;5.10;3.15;;;26.60;99.90;;;;;;5073284;28;20077;-54
2023/09/12 00:08:28;;;;;;;8.52;3.22;;;26.60;99.90;;;;;;5070636;28;20063;-54
2023/09/12 00:11:10;;;;;;;8.65;3.38;;;26.60;99.90;;;;;;5069905;28;20029;-55
2023/09/12 00:13:37;;;;;;;5.88;2.80;;;26.60;99.90;;;;;;5069815;28;20107;-54
2023/09/12 00:16:05;;;;;;;7.35;2.42;;;26.60;99.90;;;;;;5072524;28;20526;-51
2023/09/12 00:18:30;;;;;;;4.88;2.92;;;26.60;99.90;;;;;;5069383;28;20035;-52
2023/09/12 00:20:56;;;;;;;7.93;2.85;;;26.60;99.90;;;;;;5072082;28;20381;-52
2023/09/12 00:23:23;;;;;;;6.28;2.97;;;26.60;99.90;;;;;;5071848;28;20035;-55
2023/09/12 00:25:52;;;;;;;8.10;2.90;;;26.60;99.90;;;;;;5071781;28;20035;-55
2023/09/12 00:28:18;;;;;;;6.47;2.47;;;26.60;99.90;;;;;;5071310;28;20098;-54
2023/09/12 00:30:44;;;;;;;4.45;1.83;;;26.60;99.90;;;;;;5070969;28;20024;-55
2023/09/12 00:33:10;;;;;;;6.45;3.42;;;26.70;99.90;;;;;;5072315;28;20435;-59
2023/09/12 00:35:36;;;;;;;3.00;1.85;;;26.70;99.90;;;;;;5072635;28;20027;-55
2023/09/12 00:38:02;;;;;;;3.78;2.10;;;26.70;99.90;;;;;;5071557;28;20020;-62
2023/09/12 00:40:28;;;;;;;3.40;2.15;;;26.70;99.90;;;;;;5070290;28;20039;-61
2023/09/12 00:42:54;;;;;;;6.20;2.53;;;26.70;99.90;;;;;;5071227;28;20040;-54
2023/09/12 00:45:20;;;;;;;4.85;2.17;;;26.70;99.90;;;;;;5072028;28;20060;-54
2023/09/12 00:47:47;;;;;;;6.07;2.08;;;26.70;99.90;;;;;;5068981;28;20553;-54
2023/09/12 00:52:48;;;;;;;5.25;2.13;;;26.80;99.90;;;;;;5023988;28;20042;-56
2023/09/12 00:55:15;;;;;;;5.88;2.33;;;26.80;99.90;;;;;;5032252;28;20028;-57
2023/09/12 00:57:41;;;;;;;4.82;2.60;;;26.80;99.90;;;;;;5032343;28;20037;-57
2023/09/12 01:00:11;;;;;;;4.22;2.33;;;26.80;99.90;;;;;;5032525;28;20116;-57
2023/09/12 01:02:45;;;;;;;7.80;2.40;;;26.90;99.90;;;;;;5031696;28;20375;-58
2023/09/12 01:05:14;;;;;;;5.82;2.40;;;26.90;99.90;;;;;;5027531;28;20021;-58
2023/09/12 01:07:41;;;;;;;3.67;2.53;;;26.90;99.90;;;;;;5031928;28;20044;-57
2023/09/12 01:10:08;;;;;;;10.25;3.20;;;26.90;99.90;;;;;;5032562;28;20044;-58
2023/09/12 01:12:33;;;;;;;6.07;2.35;;;26.90;99.90;;;;;;5031998;28;20036;-58
2023/09/12 01:14:59;;;;;;;4.35;1.90;;;26.90;99.90;;;;;;5026102;28;20025;-58
2023/09/12 01:17:26;;;;;;;5.85;1.52;;;26.90;99.90;;;;;;5030450;28;20076;-62
2023/09/12 01:19:53;;;;;;;5.93;2.38;;;26.90;99.90;;;;;;5031182;28;20540;-60
2023/09/12 01:22:21;;;;;;;7.88;2.30;;;26.90;99.90;;;;;;5030727;28;20056;-60
2023/09/12 01:25:05;;;;;;;11.18;3.28;;;26.90;99.90;;;;;;5032028;28;20021;-59
2023/09/12 01:27:42;;;;;;;9.88;2.60;;;26.90;99.90;;;;;;5021508;28;20037;-59
2023/09/12 01:30:08;;;;;;;6.17;2.60;;;26.90;99.90;;;;;;5032232;28;20018;-60
2023/09/12 01:32:35;;;;;;;4.83;2.23;;;26.90;99.90;;;;;;5032091;28;20350;-59
2023/09/12 01:35:03;;;;;;;5.82;2.30;;;26.90;99.90;;;;;;5030147;28;20040;-59
2023/09/12 01:37:33;;;;;;;5.88;2.63;;;26.90;99.90;;;;;;5020167;28;20418;-59
2023/09/12 01:39:59;;;;;;;10.85;3.88;;;26.90;99.90;;;;;;5021363;28;20033;-60
2023/09/12 01:42:29;;;;;;;10.88;3.60;;;27.00;99.90;;;;;;5020079;28;20022;-60
2023/09/12 01:44:57;;;;;;;10.57;3.22;;;27.00;99.90;;;;;;5021115;28;20506;-61
2023/09/12 01:47:25;;;;;;;5.50;2.70;;;27.00;99.90;;;;;;5018907;28;20129;-60
2023/09/12 01:49:52;;;;;;;;;;;27.00;99.90;;;;;;5032199;28;20039;-61
2023/09/12 01:52:19;;;;;;;6.60;2.75;;;27.00;99.90;;;;;;5063807;22;19975;-50
2023/09/12 01:54:46;;;;;;;6.75;2.65;;;27.00;99.90;;;;;;5039495;28;20049;-51
2023/09/12 01:57:13;;;;;;;12.98;3.55;;;27.00;99.90;;;;;;5033244;28;20387;-51
2023/09/12 01:59:40;;;;;;;8.38;2.50;;;27.10;99.90;;;;;;5050324;28;20025;-51
2023/09/12 02:02:06;;;;;;;10.70;3.35;;;27.10;99.90;;;;;;5030847;28;20038;-51
2023/09/12 02:04:32;;;;;;;5.50;2.40;;;27.00;99.90;;;;;;5012727;28;20028;-50
2023/09/12 02:06:58;;;;;;;9.10;3.13;;;27.10;99.90;;;;;;5012759;28;20398;-50
2023/09/12 02:09:24;;;;;;;6.65;2.25;;;27.10;99.90;;;;;;5030571;28;20091;-51
2023/09/12 02:11:51;;;;;;;5.07;2.65;;;27.00;99.90;;;;;;5030943;28;20088;-50
2023/09/12 02:14:20;;;;;;;5.15;2.63;;;27.00;99.90;;;;;;5021727;28;20368;-51
2023/09/12 02:16:46;;;;;;;7.38;3.08;;;27.00;99.90;;;;;;5020276;28;20082;-51
2023/09/12 02:19:12;;;;;;;5.95;3.00;;;27.00;99.90;;;;;;5010853;28;20057;-52
2023/09/12 02:21:37;;;;;;;14.50;3.33;;;27.00;99.90;;;;;;5012918;28;20490;-50
2023/09/12 02:24:03;;;;;;;9.30;2.72;;;27.00;99.90;;;;;;5031241;28;20053;-50
2023/09/12 02:26:29;;;;;;;7.93;2.70;;;27.00;99.90;;;;;;5013047;28;20026;-50
2023/09/12 02:28:55;;;;;;;8.82;3.55;;;27.00;99.90;;;;;;5030027;28;20415;-51
2023/09/12 02:31:20;;;;;;;11.98;3.85;;;27.00;99.90;;;;;;5030222;28;20064;-49
2023/09/12 02:33:47;;;;;;;9.88;3.17;;;26.90;99.90;;;;;;5013404;28;20025;-49
2023/09/12 02:36:13;;;;;;;10.05;2.97;;;27.00;99.90;;;;;;5033824;28;20025;-49
2023/09/12 02:38:39;;;;;;;8.88;3.03;;;26.90;99.90;;;;;;5034781;28;20395;-49
2023/09/12 02:41:05;;;;;;;9.43;2.75;;;26.90;99.90;;;;;;5034480;28;20040;-49
2023/09/12 02:43:32;;;;;;;8.63;3.08;;;27.00;99.90;;;;;;5034367;28;20022;-49
2023/09/12 02:45:58;;;;;;;8.45;3.33;;;26.90;99.90;;;;;;5033755;28;20466;-49
2023/09/12 02:48:23;;;;;;;8.05;2.78;;;26.90;99.90;;;;;;5034214;28;20073;-49
2023/09/12 02:50:49;;;;;;;9.77;3.15;;;26.90;99.90;;;;;;5032744;22;20676;-55
2023/09/12 02:53:15;;;;;;;6.00;2.35;;;26.90;99.90;;;;;;5034907;28;20065;-54
2023/09/12 02:55:42;;;;;;;8.52;3.22;;;26.90;99.90;;;;;;5035568;28;20022;-54
2023/09/12 02:58:08;;;;;;;7.47;2.97;;;26.90;99.90;;;;;;5034114;28;20022;-55
2023/09/12 03:00:38;;;;;;;16.80;4.07;;;26.90;99.90;;;;;;5033760;28;20100;-55
2023/09/12 03:03:04;;;;;;;8.60;3.35;;;26.90;99.90;;;;;;5034809;28;20108;-55
2023/09/12 03:05:30;;;;;;;6.03;3.08;;;26.80;99.90;;;;;;5035287;28;20025;-55
2023/09/12 03:07:55;;;;;;;8.15;3.00;;;26.80;99.90;;;;;;5033879;28;20045;-54
2023/09/12 03:10:21;;;;;;;10.05;3.25;;;26.80;99.90;;;;;;5033807;28;20504;-53
2023/09/12 03:12:47;;;;;;;8.82;2.90;;;26.80;99.90;;;;;;5034371;28;20383;-54
2023/09/12 03:15:13;;;;;;;6.75;2.45;;;26.80;99.90;;;;;;5034166;28;20026;-55
2023/09/12 03:17:39;;;;;;;10.40;3.00;;;26.80;99.90;;;;;;5033921;28;20029;-53
2023/09/12 03:20:08;;;;;;;5.30;1.95;;;26.70;99.90;;;;;;5034141;28;20028;-53
2023/09/12 03:22:37;;;;;;;2.33;1.67;;;26.70;99.90;;;;;;5034542;28;20037;-54
2023/09/12 03:25:04;;;;;;;5.85;2.00;;;26.70;99.90;;;;;;5033545;28;20104;-53
2023/09/12 03:27:30;;;;;;;6.35;2.50;;;26.70;99.90;;;;;;5033214;28;20045;-54
2023/09/12 03:29:56;;;;;;;6.97;2.13;;;26.70;99.90;;;;;;5033066;28;20026;-54
2023/09/12 03:32:21;;;;;;;5.32;1.90;;;26.70;99.90;;;;;;5036116;28;20029;-55
2023/09/12 03:34:47;;;;;;;4.85;2.15;;;26.70;99.90;;;;;;5033599;28;20064;-54
2023/09/12 03:37:13;;;;;;;5.63;2.00;;;26.70;99.90;;;;;;5015469;28;20032;-55
2023/09/12 03:39:39;;;;;;;4.82;2.47;;;26.70;99.90;;;;;;5014961;28;20040;-55
2023/09/12 03:42:05;;;;;;;3.95;1.60;;;26.70;99.90;;;;;;5034216;28;20026;-55
2023/09/12 03:44:31;;;;;;;9.38;2.58;;;26.70;99.90;;;;;;5034113;28;20475;-55
2023/09/12 03:46:57;;;;;;;2.85;1.30;;;26.70;99.90;;;;;;5034045;28;20041;-55
2023/09/12 03:49:23;;;;;;;3.00;2.00;;;26.70;99.90;;;;;;5012973;28;20475;-55
2023/09/12 03:51:49;;;;;;;2.70;1.52;;;26.70;99.90;;;;;;5034471;22;20137;-51
2023/09/12 03:54:15;;;;;;;4.07;1.90;;;26.70;99.90;;;;;;5012904;28;20029;-51
2023/09/12 03:56:41;;;;;;;3.90;1.63;;;26.70;99.90;;;;;;5012136;28;20038;-50
2023/09/12 03:59:07;;;;;;;3.35;1.80;;;26.70;99.90;;;;;;5014488;28;20025;-50
2023/09/12 04:01:32;;;;;;;3.33;1.85;;;26.70;99.90;;;;;;5013659;28;20030;-51
2023/09/12 04:03:58;;;;;;;5.22;1.80;;;26.70;99.90;;;;;;4995117;28;20112;-51
2023/09/12 04:06:24;;;;;;;2.00;1.50;;;26.70;99.90;;;;;;5012242;28;20030;-51
2023/09/12 04:08:50;;;;;;;3.35;1.77;;;26.70;99.90;;;;;;5013817;28;20065;-51
2023/09/12 04:11:15;;;;;;;2.55;1.45;;;26.70;99.90;;;;;;5014463;28;20026;-51
2023/09/12 04:13:41;;;;;;;3.97;1.67;;;26.70;99.90;;;;;;5013763;28;20026;-51
2023/09/12 04:16:07;;;;;;;2.90;1.92;;;26.80;99.90;;;;;;5013876;28;20427;-51
2023/09/12 04:18:33;;;;;;;2.95;1.55;;;26.80;99.90;;;;;;5012815;28;20022;-51
2023/09/12 04:20:59;;;;;;;2.83;1.80;;;26.80;99.90;;;;;;5012807;28;20030;-51
2023/09/12 04:23:25;;;;;;;5.00;1.60;;;26.80;99.90;;;;;;5013103;28;20010;-51
2023/09/12 04:25:51;;;;;;;2.90;1.42;;;26.80;99.90;;;;;;5014543;28;20105;-51
2023/09/12 04:28:17;;;;;;;2.97;1.65;;;26.80;99.90;;;;;;5012861;28;20041;-51
2023/09/12 04:30:43;;;;;;;5.53;2.55;;;26.80;99.90;;;;;;4994641;28;20029;-51
2023/09/12 04:33:08;;;;;;;3.97;1.77;;;26.80;99.90;;;;;;5012958;28;20026;-51
2023/09/12 04:35:34;;;;;;;2.85;1.75;;;26.80;99.90;;;;;;5013987;28;20030;-50
2023/09/12 04:38:01;;;;;;;2.83;1.85;;;26.80;99.90;;;;;;5012560;28;20540;-51
2023/09/12 04:40:26;;;;;;;2.60;1.40;;;26.80;99.90;;;;;;5012637;28;20037;-51
2023/09/12 04:42:53;;;;;;;2.88;2.17;;;26.80;99.90;;;;;;5013432;28;20460;-52
2023/09/12 04:45:19;;;;;;;6.57;1.60;;;26.80;99.90;;;;;;5013034;28;20464;-51
2023/09/12 04:47:44;;;;;;;4.43;1.77;;;26.80;99.90;;;;;;5012254;28;20069;-51
2023/09/12 04:50:11;;;;;;;3.88;1.70;;;26.90;99.90;;;;;;5012423;28;20087;-51
2023/09/12 04:52:38;;;;;;;4.33;1.40;;;26.90;99.90;;;;;;5013494;28;20074;-51
2023/09/12 04:55:04;;;;;;;2.55;1.67;;;26.90;99.90;;;;;;5012181;28;20076;-52
2023/09/12 04:57:30;;;;;;;4.82;2.17;;;26.80;99.90;;;;;;5010734;28;20022;-52
2023/09/12 05:00:00;;;;;;;4.32;1.70;;;26.80;99.90;;;;;;5012861;28;20098;-51
2023/09/12 05:02:26;;;;;;;2.80;1.70;;;26.80;99.90;;;;;;5013485;28;20038;-51
2023/09/12 05:04:52;;;;;;;2.42;1.65;;;26.90;99.90;;;;;;5011965;28;20061;-51
2023/09/12 05:07:18;;;;;;;2.95;1.85;;;26.80;99.90;;;;;;5011656;28;20439;-51
2023/09/12 05:09:44;;;;;;;3.35;1.95;;;26.80;99.90;;;;;;5012137;28;20026;-51
2023/09/12 05:12:09;;;;;;;2.65;1.75;;;26.80;99.90;;;;;;5012718;28;20026;-51
2023/09/12 05:14:35;;;;;;;8.63;2.33;;;26.80;99.90;;;;;;5011802;28;20117;-51
2023/09/12 05:17:01;;;;;;;3.63;1.65;;;26.80;99.90;;;;;;4994457;28;20052;-51
2023/09/12 05:19:30;;;;;;;3.53;1.70;;;26.80;99.90;;;;;;5013084;28;20018;-51
2023/09/12 05:21:55;;;;;;;4.75;1.60;;;26.80;99.90;;;;;;4994154;28;20395;-51
2023/09/12 05:24:21;;;;;;;4.15;1.58;;;26.80;99.90;;;;;;5011788;28;20022;-52
2023/09/12 05:26:49;;;;;;;4.63;1.63;;;26.80;99.90;;;;;;5012601;28;20037;-51
2023/09/12 05:29:14;;;;;;;3.17;1.35;;;26.80;99.90;;;;;;4995312;28;20018;-51
2023/09/12 05:31:40;;;;;;;4.60;1.70;;;26.80;99.90;;;;;;5011731;28;20033;-52
2023/09/12 05:34:06;;;;;;;3.65;1.50;;;26.80;99.90;;;;;;5011362;28;20026;-50
2023/09/12 05:36:32;;;;;;;5.63;1.85;;;26.80;99.90;;;;;;5010846;28;20041;-51
2023/09/12 05:38:58;;;;;;;8.65;1.67;;;26.80;99.90;;;;;;5013422;28;20034;-51
2023/09/12 05:41:24;;;;;;;2.38;1.67;;;26.80;99.90;;;;;;5010610;28;20080;-51
2023/09/12 05:43:50;;;;;;;2.78;1.42;;;26.80;99.90;;;;;;5011379;28;20033;-51
2023/09/12 05:46:15;;;;;;;8.40;2.30;;;26.80;99.90;;;;;;4995762;28;20411;-51
2023/09/12 05:48:41;;;;;;;4.03;1.70;;;26.80;99.90;;;;;;5011465;28;20501;-51
2023/09/12 05:51:07;;;;;;;5.43;1.55;;;26.80;99.90;;;;;;5011467;28;20042;-50
2023/09/12 05:53:33;;;;;;;5.68;1.70;;;26.80;99.90;;;;;;4994066;28;20069;-51
2023/09/12 05:55:58;;;;;;;3.85;1.58;;;26.70;99.90;;;;;;5013236;28;20029;-51
2023/09/12 05:58:24;;;;;;;2.50;1.58;;;26.70;99.90;;;;;;5011211;28;20030;-51
2023/09/12 06:00:50;;;;;;;3.38;1.50;;;26.80;99.90;;;;;;4993197;28;20022;-51
2023/09/12 06:03:16;;;;;;;4.18;1.13;;;26.70;99.90;;;;;;5011282;28;20021;-51
2023/09/12 06:05:42;;;;;;;6.00;1.58;;;26.70;99.90;;;;;;5012626;28;20109;-51
2023/09/12 06:08:08;;;;;;;6.63;1.80;;;26.70;99.90;;;;;;5011388;28;20061;-51
2023/09/12 06:10:34;;;;;;;2.75;1.40;;;26.70;99.90;;;;;;4997350;28;20435;-51
2023/09/12 06:12:59;;;;;;;5.68;1.63;;;26.70;99.90;;;;;;5016490;28;20185;-51
2023/09/12 06:15:25;;;;;;;8.23;1.77;;;26.70;99.90;;;;;;5015677;28;20076;-51
2023/09/12 06:17:51;;;;;;;6.38;1.70;;;26.70;99.90;;;;;;5015224;28;20032;-50
2023/09/12 06:20:17;;;;;;;13.95;2.10;;;26.70;99.90;;;;;;5015650;28;20029;-51
2023/09/12 06:22:43;;;;;;;7.85;1.88;;;26.70;99.90;;;;;;4995936;28;20036;-50
2023/09/12 06:25:09;;;;;;;6.95;1.98;;;26.70;99.90;;;;;;5014861;28;20579;-51
2023/09/12 06:27:35;;;;;;;3.20;1.80;;;26.70;99.90;;;;;;4997915;28;20050;-50
2023/09/12 06:30:01;;;;;;;9.32;1.98;;;26.70;99.90;;;;;;5014781;28;20037;-50
2023/09/12 06:32:27;;;;;;;3.08;1.42;;;26.70;99.90;;;;;;4998268;28;20065;-50
2023/09/12 06:34:53;;;;;;;7.93;1.77;;;26.70;99.90;;;;;;5014937;28;20022;-50
2023/09/12 06:37:18;;;;;;;3.90;1.63;;;26.70;99.90;;;;;;5014423;28;20034;-51
2023/09/12 06:39:44;;;;;;;5.20;1.55;;;26.70;99.90;;;;;;5014977;28;20113;-50
2023/09/12 06:42:10;;;;;;;5.22;1.40;;;26.70;99.90;;;;;;5016336;28;20037;-50
2023/09/12 06:44:36;;;;;;;4.75;1.50;;;26.70;99.90;;;;;;5014870;28;20166;-51
2023/09/12 06:47:04;;;;;;;4.80;1.75;;;26.80;99.90;;;;;;5014623;28;20030;-51
2023/09/12 06:49:32;;;;;;;6.82;1.73;;;26.80;99.90;;;;;;5016076;28;20057;-51
2023/09/12 06:51:58;;;;;;;8.55;2.67;;;26.80;99.90;;;;;;5014293;28;20034;-51
2023/09/12 06:54:23;;;;;;;6.00;2.03;;;26.80;99.90;;;;;;4997959;28;20044;-50
2023/09/12 06:56:49;;;;;;;3.95;1.85;;;26.80;99.90;;;;;;4997488;28;20025;-51
2023/09/12 06:59:15;;;;;;;7.38;1.55;;;26.80;99.90;;;;;;5015119;28;20030;-51
2023/09/12 07:01:41;;;;;;;9.82;1.63;;;26.80;99.90;;;;;;5014219;28;20026;-51
2023/09/12 07:04:06;;;;;;;7.32;1.95;;;26.80;99.90;;;;;;5014988;28;20030;-51
2023/09/12 07:06:33;;;;;;;7.63;1.77;;;26.90;99.90;;;;;;5014188;28;20068;-50
2023/09/12 07:08:59;;;;;;;9.27;1.60;;;26.90;99.90;;;;;;5013778;28;20476;-51
2023/09/12 07:11:24;;;;;;;5.97;1.60;;;26.90;99.90;;;;;;5014428;28;20026;-51
2023/09/12 07:13:50;;;;;;;5.32;1.88;;;26.90;99.90;;;;;;5014045;28;20018;-51
2023/09/12 07:16:16;;;;;;;3.88;1.83;;;26.90;99.90;;;;;;5015045;28;20495;-51
2023/09/12 07:18:42;;;;;;;7.43;1.90;;;27.00;99.90;;;;;;5014838;28;20525;-51
2023/09/12 07:21:08;;;;;;;4.47;1.90;;;27.00;99.90;;;;;;5014320;28;20523;-51
2023/09/12 07:23:33;;;;;;;4.68;2.47;;;27.00;99.90;;;;;;5014910;28;20109;-50
2023/09/12 07:25:59;;;;;;;2.63;1.70;;;27.00;99.90;;;;;;5015092;28;20361;-50
2023/09/12 07:28:26;;;;;;;9.18;2.05;;;27.00;99.90;;;;;;5013872;28;20121;-51
2023/09/12 07:30:53;;;;;;;5.00;2.33;;;27.10;99.90;;;;;;5014531;28;20026;-50
2023/09/12 07:33:18;;;;;;;4.03;1.45;;;27.10;99.90;;;;;;4997129;28;20459;-50
2023/09/12 07:35:44;;;;;;;4.93;2.05;;;27.10;99.90;;;;;;4968144;28;20057;-51
2023/09/12 07:38:10;;;;;;;3.10;1.80;;;27.10;99.90;;;;;;4994005;28;20026;-51
2023/09/12 07:40:36;;;;;;;4.60;1.98;;;27.10;99.90;;;;;;4994751;28;20072;-51
2023/09/12 07:43:02;;;;;;;3.97;2.00;;;27.20;99.90;;;;;;4999067;28;20037;-51
2023/09/12 07:45:29;;;;;;;14.95;3.80;;;27.20;99.90;;;;;;5014478;28;20060;-51
2023/09/12 07:47:55;;;;;;;8.55;2.42;;;27.20;99.90;;;;;;5013854;28;20030;-51
2023/09/12 07:50:21;;;;;;;3.13;2.00;;;27.30;99.90;;;;;;5014160;28;20033;-50
2023/09/12 07:52:46;;;;;;;3.95;2.10;;;27.30;99.90;;;;;;5014871;28;20045;-50
2023/09/12 07:55:12;;;;;;;4.32;1.92;;;27.30;99.90;;;;;;5013142;28;20076;-50
2023/09/12 07:57:38;;;;;;;5.05;2.22;;;27.40;99.90;;;;;;5013938;28;20022;-51
2023/09/12 08:00:09;;;;;;;3.80;2.05;;;27.40;99.90;;;;;;5013905;28;20061;-50
2023/09/12 08:02:35;;;;;;;4.88;2.28;;;27.40;99.90;;;;;;5014481;28;20045;-50
2023/09/12 08:05:01;;;;;;;4.55;2.25;;;27.40;99.90;;;;;;5013046;28;20410;-50
2023/09/12 08:07:26;;;;;;;6.28;2.45;;;27.50;99.90;;;;;;5012899;28;20526;-51
2023/09/12 08:09:54;;;;;;;4.05;2.50;;;27.50;99.90;;;;;;5013800;28;20076;-50
2023/09/12 08:12:22;;;;;;;6.30;2.67;;;27.50;99.90;;;;;;5014046;28;20486;-50
2023/09/12 08:14:48;;;;;;;4.75;2.80;;;27.60;99.90;;;;;;5013031;28;20030;-50
2023/09/12 08:17:15;;;;;;;5.45;2.70;;;27.60;99.90;;;;;;5013735;28;20018;-50
2023/09/12 08:19:41;;;;;;;4.25;3.05;;;27.60;99.90;;;;;;5014535;28;20038;-50
2023/09/12 08:22:08;;;;;;;4.85;2.65;;;27.70;99.90;;;;;;5012880;28;20026;-50
2023/09/12 08:24:35;;;;;;;7.13;2.47;;;27.70;99.90;;;;;;5013401;28;20044;-50
2023/09/12 08:27:01;;;;;;;2.25;1.98;;;27.70;99.90;;;;;;5013441;28;20030;-50
2023/09/12 08:29:31;;;;;;;7.05;2.42;;;27.70;99.90;;;;;;5013408;28;20034;-51
2023/09/12 08:31:57;;;;;;;4.63;2.45;;;27.70;99.90;;;;;;5012117;28;20380;-50
2023/09/12 08:34:22;;;;;;;5.72;2.35;;;27.80;99.90;;;;;;5013338;28;20034;-52
2023/09/12 08:36:48;;;;;;;5.93;2.28;;;27.80;99.90;;;;;;4995558;28;20108;-51
2023/09/12 08:39:16;;;;;;;4.05;2.47;;;27.80;99.90;;;;;;5013583;28;20018;-51
2023/09/12 08:41:47;;;;;;;3.53;2.67;;;27.90;99.90;;;;;;5012403;28;20036;-51
2023/09/12 08:44:13;;;;;;;5.22;2.42;;;27.90;99.90;;;;;;5013268;28;20022;-51
2023/09/12 08:46:42;;;;;;;4.80;2.30;;;27.90;99.90;;;;;;5013437;28;20105;-50
2023/09/12 08:49:09;;;;;;;13.73;3.40;;;27.90;99.90;;;;;;5012161;28;20053;-50
2023/09/12 08:51:39;;;;;;;4.95;2.33;;;27.90;99.90;;;;;;5012905;28;20511;-51
2023/09/12 08:54:06;;;;;;;7.43;2.78;;;28.00;99.90;;;;;;5012876;28;20036;-50
2023/09/12 08:56:34;;;;;;;5.40;2.00;;;28.00;99.90;;;;;;5013440;28;20026;-50
2023/09/12 08:59:01;;;;;;;5.53;2.30;;;28.00;99.90;;;;;;5012255;28;20392;-51
2023/09/12 09:01:30;;;;;;;7.57;2.58;;;28.00;99.90;;;;;;5013087;28;20380;-51
2023/09/12 09:03:56;;;;;;;10.32;2.90;;;28.00;99.90;;;;;;5012714;28;20413;-51
2023/09/12 09:06:23;;;;;;;3.53;2.30;;;28.00;99.90;;;;;;5013199;28;20030;-50
2023/09/12 09:08:52;;;;;;;4.57;2.25;;;28.00;99.90;;;;;;5011859;28;20034;-51
2023/09/12 09:11:18;;;;;;;12.05;3.30;;;28.00;99.90;;;;;;5012856;28;20026;-50
2023/09/12 09:13:44;;;;;;;6.68;2.38;;;28.10;99.90;;;;;;5012696;28;20032;-50
2023/09/12 09:16:13;;;;;;;4.60;2.30;;;28.10;99.90;;;;;;5011835;28;20203;-50
2023/09/12 09:18:51;;;;;;;9.65;2.55;;;28.10;99.90;;;;;;5012624;28;20022;-50
2023/09/12 09:21:19;;;;;;;5.57;2.78;;;28.10;99.90;;;;;;4994897;28;20053;-50
2023/09/12 09:23:46;;;;;;;7.95;2.92;;;28.20;99.90;;;;;;5012486;28;20497;-51
2023/09/12 09:26:12;;;;;;;6.18;3.38;;;28.20;99.90;;;;;;5011651;28;20127;-52
2023/09/12 09:28:39;;;;;;;6.03;2.30;;;28.20;99.90;;;;;;5012254;28;20037;-52
2023/09/12 09:31:10;;;;;;;8.50;2.97;;;28.20;99.90;;;;;;5012272;28;20065;-52
2023/09/12 09:33:36;;;;;;;5.22;2.38;;;28.20;99.90;;;;;;4991664;28;20034;-53
2023/09/12 09:36:04;;;;;;;10.48;2.70;;;28.20;99.90;;;;;;4992301;28;20022;-51
2023/09/12 09:38:30;;;;;;;6.18;2.97;;;28.20;99.90;;;;;;4992812;28;20033;-51
2023/09/12 09:40:56;;;;;;;9.25;3.35;;;28.20;99.90;;;;;;5003574;28;20022;-51
2023/09/12 09:43:22;;;;;;;10.50;3.33;;;28.20;99.90;;;;;;5011244;28;20483;-51
2023/09/12 09:45:48;;;;;;;6.97;2.53;;;28.20;99.90;;;;;;5012301;28;20383;-51
2023/09/12 09:48:22;;;;;;;10.32;3.53;;;28.20;99.90;;;;;;5011325;28;20077;-51
2023/09/12 09:50:48;;;;;;;6.03;2.70;;;28.30;99.90;;;;;;5013528;28;20026;-51
2023/09/12 09:53:15;;;;;;;6.93;2.97;;;28.20;99.90;;;;;;5011371;28;20030;-51
2023/09/12 09:55:42;;;;;;;10.38;5.60;;;28.30;99.90;;;;;;5012025;28;20026;-52
2023/09/12 09:58:08;;;;;;;16.45;8.43;;;28.30;99.90;;;;;;5011917;28;20691;-52
2023/09/12 10:00:37;;;;;;;12.70;3.47;;;28.30;99.90;;;;;;5012372;28;20109;-52
2023/09/12 10:03:06;;;;;;;10.63;2.90;;;28.30;99.90;;;;;;4999863;28;20026;-51
2023/09/12 10:05:33;;;;;;;14.40;4.30;;;28.30;99.90;;;;;;5002040;28;20014;-51
2023/09/12 10:08:02;;;;;;;8.20;3.08;;;28.40;99.90;;;;;;5004486;28;20045;-52
2023/09/12 10:10:29;;;;;;;6.82;2.47;;;28.40;99.90;;;;;;5001033;28;20017;-51
2023/09/12 10:12:57;;;;;;;4.80;2.15;;;28.40;99.90;;;;;;5006702;28;20031;-51
2023/09/12 10:15:29;;;;;;;6.97;2.63;;;28.50;99.90;;;;;;4993229;28;20392;-52
2023/09/12 10:18:01;;;;;;;6.13;2.78;;;28.50;99.90;;;;;;5014931;28;20132;-51
2023/09/12 10:20:40;;;;;;;6.10;2.45;;;28.60;99.90;;;;;;5009865;28;20026;-51
2023/09/12 10:23:17;;;;;;;11.15;3.10;;;28.60;99.90;;;;;;5004702;28;20038;-52
2023/09/12 10:25:44;;;;;;;8.23;2.88;;;28.60;99.90;;;;;;5003052;28;20017;-51
2023/09/12 10:28:11;;;;;;;9.80;2.70;;;28.70;99.90;;;;;;5019848;28;20048;-51
2023/09/12 10:30:38;;;;;;;8.93;2.65;;;28.60;99.90;;;;;;5012720;28;20034;-51
2023/09/12 10:33:05;;;;;;;7.13;2.60;;;28.60;99.90;;;;;;5013190;28;20547;-51
2023/09/12 10:35:35;;;;;;;4.53;2.28;;;28.70;99.90;;;;;;5019366;28;20427;-51
2023/09/12 10:38:04;;;;;;;8.13;2.55;;;28.70;99.90;;;;;;5013003;28;20030;-50
2023/09/12 10:40:31;;;;;;;7.15;2.38;;;28.70;99.90;;;;;;5005471;28;20018;-51
2023/09/12 10:42:59;;;;;;;5.35;2.28;;;28.80;99.90;;;;;;5004245;28;20108;-51
2023/09/12 10:45:26;;;;;;;9.65;4.55;;;28.80;99.90;;;;;;5008315;28;20033;-51
2023/09/12 10:47:52;;;;;;;8.32;4.22;;;29.00;99.90;;;;;;4974766;28;20046;-51
2023/09/12 10:50:20;;;;;;;5.70;2.70;;;29.00;99.90;;;;;;4992100;28;20370;-52
2023/09/12 10:52:46;;;;;;;6.45;2.53;;;29.00;99.90;;;;;;4991966;28;20054;-51
2023/09/12 10:55:19;;;;;;;9.05;2.88;;;29.10;99.90;;;;;;4993628;28;20041;-52
2023/09/12 10:58:02;;;;;;;11.55;3.70;;;29.10;99.90;;;;;;4995655;28;20035;-51
2023/09/12 11:00:28;;;;;;;6.47;2.60;;;29.10;99.90;;;;;;4995637;28;20162;-52
2023/09/12 11:02:54;;;;;;;6.47;2.55;;;29.20;99.90;;;;;;4995535;28;20034;-51
2023/09/12 11:05:29;;;;;;;8.27;2.72;;;29.20;99.90;;;;;;4995393;28;20384;-51
2023/09/12 11:07:58;;;;;;;12.93;3.50;;;29.20;99.90;;;;;;4995253;28;20034;-52
2023/09/12 11:10:25;;;;;;;9.02;2.65;;;29.30;99.90;;;;;;4995478;28;20418;-51
2023/09/12 11:12:53;;;;;;;5.18;2.70;;;29.30;99.90;;;;;;4995434;28;20022;-51
2023/09/12 11:15:21;;;;;;;5.38;2.88;;;29.40;99.90;;;;;;4995291;28;20063;-51
2023/09/12 11:17:49;;;;;;;5.50;2.55;;;29.40;99.90;;;;;;4995361;28;20046;-51
2023/09/12 11:20:15;;;;;;;;;;;29.40;99.90;;;;;;4995695;28;20030;-52
2023/09/12 11:22:43;;;;;;;9.88;2.63;;;29.40;99.90;;;;;;4995238;28;20278;-52
2023/09/12 11:25:25;;;;;;;6.93;2.40;;;29.40;99.90;;;;;;4995250;28;20030;-51
2023/09/12 11:27:54;;;;;;;12.50;2.85;;;29.40;99.90;;;;;;4995068;28;20041;-52
2023/09/12 11:30:30;;;;;;;9.98;3.90;;;29.50;99.90;;;;;;4995318;28;20026;-52
2023/09/12 11:32:57;;;;;;;6.10;3.10;;;29.50;99.90;;;;;;4994895;28;20087;-50
2023/09/12 11:35:27;;;;;;;11.23;3.25;;;29.50;99.90;;;;;;4994971;28;20034;-51
2023/09/12 11:37:58;;;;;;;8.88;2.92;;;29.50;99.90;;;;;;4994827;28;20057;-51
2023/09/12 11:40:34;;;;;;;9.48;3.47;;;29.50;99.90;;;;;;4994853;28;20469;-51
2023/09/12 11:43:01;;;;;;;9.57;3.00;;;29.50;99.90;;;;;;4994803;28;20038;-51
2023/09/12 11:45:27;;;;;;;7.83;2.93;;;29.50;99.90;;;;;;4994777;28;20492;-52
2023/09/12 11:47:54;;;;;;;10.80;3.13;;;29.50;99.90;;;;;;4994734;28;20287;-51
2023/09/12 11:50:27;;;;;;;7.15;2.70;;;29.50;99.90;;;;;;4994737;28;20027;-51
2023/09/12 11:53:04;;;;;;;8.10;2.47;;;29.50;99.90;;;;;;4994523;28;20380;-51
2023/09/12 11:55:52;;;;;;;7.68;3.10;;;29.50;99.90;;;;;;4994570;28;20030;-51
2023/09/12 11:58:18;;;;;;;8.18;3.38;;;29.50;99.90;;;;;;4994603;28;20433;-51
2023/09/12 12:00:50;;;;;;;8.50;5.20;;;29.50;99.90;;;;;;4994594;28;20031;-51
2023/09/12 12:03:17;;;;;;;8.43;3.45;;;29.50;99.90;;;;;;4994254;28;20102;-52
2023/09/12 12:05:43;;;;;;;7.43;2.42;;;29.50;99.90;;;;;;4994521;28;20019;-51
2023/09/12 12:08:11;;;;;;;7.75;2.33;;;29.60;99.90;;;;;;4994443;28;20536;-51
2023/09/12 12:10:39;;;;;;;10.52;2.80;;;29.50;99.90;;;;;;4997853;28;20025;-52
2023/09/12 12:13:05;;;;;;;8.00;4.70;;;29.50;99.90;;;;;;5010470;28;20031;-52
2023/09/12 12:15:32;;;;;;;10.57;3.85;;;29.60;99.90;;;;;;5000352;28;20587;-52
2023/09/12 12:17:58;;;;;;;11.10;5.43;;;29.60;99.90;;;;;;5003201;28;20484;-52
2023/09/12 12:20:24;;;;;;;10.85;5.32;;;29.60;99.90;;;;;;5002080;28;20512;-52
2023/09/12 12:22:52;;;;;;;18.15;9.10;;;29.50;99.90;;;;;;4980221;28;20033;-52
2023/09/12 12:25:18;;;;;;;12.00;6.97;;;29.50;99.90;;;;;;5003848;28;20388;-51
2023/09/12 12:27:44;;;;;;;13.85;4.18;;;29.60;99.90;;;;;;5004294;28;20029;-52
2023/09/12 12:30:13;;;;;;;7.60;3.88;;;29.60;99.90;;;;;;5009118;28;20032;-52
2023/09/12 12:32:52;;;;;;;11.15;3.67;;;29.60;99.90;;;;;;5003526;28;20030;-51
2023/09/12 12:35:19;;;;;;;7.65;3.20;;;29.60;99.90;;;;;;4998601;28;20026;-52
2023/09/12 12:37:45;;;;;;;;;;;29.60;99.90;;;;;;5003860;28;20022;-51
2023/09/12 12:40:15;;;;;;;9.55;4.03;;;29.60;99.90;;;;;;4998595;28;19921;-51
2023/09/12 12:42:42;;;;;;;7.25;3.42;;;29.60;99.90;;;;;;5005786;28;20030;-50
2023/09/12 12:45:21;;;;;;;7.57;3.97;;;29.60;99.90;;;;;;5000617;28;20014;-51
2023/09/12 12:47:52;;;;;;;6.30;3.42;;;29.60;99.90;;;;;;5001905;28;20038;-51